Albuquerque, NM

7:31 AM MDT on September 22, 2014 (GMT -0600)
Santa Fe Municipal | Change Station
CLOSE
Current Station
Airport
Location: Santa Fe,
Elevation: 6345 ft
Nearby Weather Stations

Elev 6345 ft 35.62 °N, 106.09 °W | Updated 28 minutes ago

Overcast
Overcast
60 °F
Feels Like 60 °F
N
13
Wind Variable Wind from SE

Today
High -- | Low -- °F
--% Chance of Precip.
Yesterday
High -- | Low -- °F
Precip. -- in
6:54 AM 7:03 PM
Waning Crescent, 3% visible
Pressure 30.36 in
Visibility 10.0 miles
Clouds Mostly Cloudy 1500 ft
Overcast 5500 ft
Dew Point 55 °F
Humidity 83%
Rainfall 0.00 in
Snow Depth 0 in , 0 in , 0 in
UV 0 out of 12
Pollen 1.80 out of 12
Air Quality Not available.
Flu Activity Not available.
SPECI KSAF 221303Z 13011KT 10SM BKN015 OVC055 16/13 A3036 RMK AO2 T01560128

More Conditions Fewer Conditions

Pressure 30.36 in
Visibility 10.0 miles
Clouds Mostly Cloudy 1500 ft
Overcast 5500 ft
Dew Point 55 °F
Humidity 83%
Rainfall 0.00 in
Snow Depth 0 in , 0 in , 0 in
UV 0 out of 12
Pollen 1.80 out of 12
Air Quality Not available.
Flu Activity Not available.
SPECI KSAF 221303Z 13011KT 10SM BKN015 OVC055 16/13 A3036 RMK AO2 T01560128

More Conditions Fewer Conditions

Nowcast | as of 5:20 am MDT on September 22, 2014

Scattered showers...a few with thunder...will continue through the early morning hours and likely beyond...most drifting to the northeast. The greatest concentration should remain in and near Catron County through 730 am MDT. Expect occasional lightning and rainfall up to three or four tenths of an inch along with locally poor visibility in heavier showers and...more locally...fog. Some localities potentially affected include dusty...Beaverhead... Reserve...Glenwood...Red Hill...Quemado...Gallup...Narbona Pass... Aztec and the southeast side of the Albuquerque Metro area. Elsewhere...expect much more isolated showers of up to two tenths of an inch and a few fog patches.

×

10-Day Weather Forecast

Almanac

Astronomy

Sep. 22, 2014 Rise Set
Actual Time 6:54 AM MDT 7:03 PM MDT
Civil Twilight 6:29 AM MDT 7:28 PM MDT
Nautical Twilight 5:59 AM MDT 7:58 PM MDT
Astronomical Twilight 5:29 AM MDT 8:27 PM MDT
Moon 5:28 AM MDT 6:11 PM MDT
Length of Visible Light 12h 59m
Length of Day
12h 08m
Tomorrow will be 2m 11s shorter.
Waning Crescent, 3% of the Moon is Illuminated
Today
Waning Crescent
Sep 24
New
Oct 1
First Quarter
Oct 8
Full
Oct 15
Last Quarter

Today's Extremes

State Highs State Lows

Community

WunderPhotos

Upload Photos

1,755,429 photos uploaded!

WunderBlogs® & News

Nearby

Snow Depth

Station Depth Elevation
Red River Pass #2 0 in 9850 ft
Frisco Divide 0 in 8000 ft
North Costilla 1 in 10600 ft
Sierra Blanca 0 in 10280 ft
Senorita Divide #2 0 in 8600 ft

Earthquake Activity

City Distance Mag. Time & Date
No recent earthquake activity has been reported nearby.
Minimum magnitude displayed is 2.5.

Coastal Water Temperatures

Place Temperature
No Stations Reporting

Nearby Weather Stations